sensor_id;sensor_type;location;lat;lon;timestamp;P1;durP1;ratioP1;P2;durP2;ratioP2
84695;SDS011;74913;40.204;44.532;2024-01-15T00:01:43;20.15;;;11.55;;
84695;SDS011;74913;40.204;44.532;2024-01-15T00:04:09;25.33;;;12.48;;
84695;SDS011;74913;40.204;44.532;2024-01-15T00:06:35;20.95;;;11.35;;
84695;SDS011;74913;40.204;44.532;2024-01-15T00:09:01;22.33;;;11.18;;
84695;SDS011;74913;40.204;44.532;2024-01-15T00:11:27;22.98;;;11.23;;
84695;SDS011;74913;40.204;44.532;2024-01-15T00:13:53;21.52;;;11.20;;
84695;SDS011;74913;40.204;44.532;2024-01-15T00:16:18;20.40;;;10.15;;
84695;SDS011;74913;40.204;44.532;2024-01-15T00:18:44;20.48;;;10.60;;
84695;SDS011;74913;40.204;44.532;2024-01-15T00:21:10;19.23;;;10.10;;
84695;SDS011;74913;40.204;44.532;2024-01-15T00:23:36;17.63;;;9.43;;
84695;SDS011;74913;40.204;44.532;2024-01-15T00:26:01;16.00;;;8.55;;
84695;SDS011;74913;40.204;44.532;2024-01-15T00:28:27;20.15;;;9.70;;
84695;SDS011;74913;40.204;44.532;2024-01-15T00:30:53;17.95;;;9.95;;
84695;SDS011;74913;40.204;44.532;2024-01-15T00:33:18;19.90;;;9.57;;
84695;SDS011;74913;40.204;44.532;2024-01-15T00:35:44;15.10;;;7.15;;
84695;SDS011;74913;40.204;44.532;2024-01-15T00:38:09;18.02;;;8.95;;
84695;SDS011;74913;40.204;44.532;2024-01-15T00:40:35;17.65;;;9.00;;
84695;SDS011;74913;40.204;44.532;2024-01-15T00:43:01;20.23;;;10.73;;
84695;SDS011;74913;40.204;44.532;2024-01-15T00:45:27;17.77;;;10.10;;
84695;SDS011;74913;40.204;44.532;2024-01-15T00:47:53;19.13;;;9.48;;
84695;SDS011;74913;40.204;44.532;2024-01-15T00:50:21;22.20;;;11.05;;
84695;SDS011;74913;40.204;44.532;2024-01-15T00:52:47;20.30;;;10.57;;
84695;SDS011;74913;40.204;44.532;2024-01-15T00:55:14;24.85;;;12.02;;
84695;SDS011;74913;40.204;44.532;2024-01-15T00:57:39;24.65;;;11.02;;
84695;SDS011;74913;40.204;44.532;2024-01-15T01:00:05;23.33;;;10.95;;
84695;SDS011;74913;40.204;44.532;2024-01-15T01:02:31;27.92;;;11.05;;
84695;SDS011;74913;40.204;44.532;2024-01-15T01:04:57;21.45;;;11.43;;
84695;SDS011;74913;40.204;44.532;2024-01-15T01:07:22;20.30;;;9.55;;
84695;SDS011;74913;40.204;44.532;2024-01-15T01:09:48;23.30;;;11.65;;
84695;SDS011;74913;40.204;44.532;2024-01-15T01:12:14;21.50;;;10.82;;
84695;SDS011;74913;40.204;44.532;2024-01-15T01:14:40;22.35;;;12.32;;
84695;SDS011;74913;40.204;44.532;2024-01-15T01:17:05;25.40;;;12.25;;
84695;SDS011;74913;40.204;44.532;2024-01-15T01:19:31;27.42;;;12.38;;
84695;SDS011;74913;40.204;44.532;2024-01-15T01:21:57;23.02;;;11.90;;
84695;SDS011;74913;40.204;44.532;2024-01-15T01:24:22;22.50;;;11.30;;
84695;SDS011;74913;40.204;44.532;2024-01-15T01:26:48;24.10;;;11.50;;
84695;SDS011;74913;40.204;44.532;2024-01-15T01:29:14;22.63;;;11.60;;
84695;SDS011;74913;40.204;44.532;2024-01-15T01:31:46;24.20;;;12.60;;
84695;SDS011;74913;40.204;44.532;2024-01-15T01:34:15;24.90;;;11.32;;
84695;SDS011;74913;40.204;44.532;2024-01-15T01:36:42;23.58;;;11.07;;
84695;SDS011;74913;40.204;44.532;2024-01-15T01:39:08;23.95;;;12.52;;
84695;SDS011;74913;40.204;44.532;2024-01-15T01:41:34;26.42;;;11.52;;
84695;SDS011;74913;40.204;44.532;2024-01-15T01:44:00;23.27;;;11.60;;
84695;SDS011;74913;40.204;44.532;2024-01-15T01:46:26;24.90;;;11.38;;
84695;SDS011;74913;40.204;44.532;2024-01-15T01:48:53;24.00;;;11.27;;
84695;SDS011;74913;40.204;44.532;2024-01-15T01:51:21;22.38;;;10.65;;
84695;SDS011;74913;40.204;44.532;2024-01-15T01:53:49;25.02;;;11.80;;
84695;SDS011;74913;40.204;44.532;2024-01-15T01:56:16;23.30;;;10.73;;
84695;SDS011;74913;40.204;44.532;2024-01-15T01:58:43;24.25;;;11.02;;
84695;SDS011;74913;40.204;44.532;2024-01-15T02:01:10;24.15;;;11.82;;
84695;SDS011;74913;40.204;44.532;2024-01-15T02:03:38;25.80;;;11.32;;
84695;SDS011;74913;40.204;44.532;2024-01-15T02:06:05;23.70;;;12.50;;
84695;SDS011;74913;40.204;44.532;2024-01-15T02:08:31;21.63;;;9.73;;
84695;SDS011;74913;40.204;44.532;2024-01-15T02:10:57;24.48;;;12.45;;
84695;SDS011;74913;40.204;44.532;2024-01-15T02:13:23;24.75;;;11.93;;
84695;SDS011;74913;40.204;44.532;2024-01-15T02:15:49;24.98;;;12.10;;
84695;SDS011;74913;40.204;44.532;2024-01-15T02:18:14;31.60;;;13.50;;
84695;SDS011;74913;40.204;44.532;2024-01-15T02:20:40;29.27;;;11.55;;
84695;SDS011;74913;40.204;44.532;2024-01-15T02:23:09;22.35;;;10.40;;
84695;SDS011;74913;40.204;44.532;2024-01-15T02:25:40;29.35;;;13.48;;
84695;SDS011;74913;40.204;44.532;2024-01-15T02:28:10;25.13;;;11.35;;
84695;SDS011;74913;40.204;44.532;2024-01-15T02:30:40;25.60;;;11.77;;
84695;SDS011;74913;40.204;44.532;2024-01-15T02:33:07;29.00;;;13.77;;
84695;SDS011;74913;40.204;44.532;2024-01-15T02:35:33;30.95;;;13.48;;
84695;SDS011;74913;40.204;44.532;2024-01-15T02:38:01;25.95;;;12.13;;
84695;SDS011;74913;40.204;44.532;2024-01-15T02:40:28;19.73;;;10.18;;
84695;SDS011;74913;40.204;44.532;2024-01-15T02:42:54;28.58;;;13.30;;
84695;SDS011;74913;40.204;44.532;2024-01-15T02:45:19;22.60;;;10.63;;
84695;SDS011;74913;40.204;44.532;2024-01-15T02:47:46;23.80;;;11.02;;
84695;SDS011;74913;40.204;44.532;2024-01-15T02:50:11;25.50;;;13.38;;
84695;SDS011;74913;40.204;44.532;2024-01-15T02:52:37;28.45;;;13.05;;
84695;SDS011;74913;40.204;44.532;2024-01-15T02:55:03;23.92;;;11.38;;
84695;SDS011;74913;40.204;44.532;2024-01-15T02:57:29;24.58;;;13.13;;
84695;SDS011;74913;40.204;44.532;2024-01-15T02:59:54;29.05;;;13.10;;
84695;SDS011;74913;40.204;44.532;2024-01-15T03:02:20;22.63;;;10.38;;
84695;SDS011;74913;40.204;44.532;2024-01-15T03:04:46;21.13;;;11.13;;
84695;SDS011;74913;40.204;44.532;2024-01-15T03:07:12;20.58;;;10.70;;
84695;SDS011;74913;40.204;44.532;2024-01-15T03:09:37;22.85;;;9.80;;
84695;SDS011;74913;40.204;44.532;2024-01-15T03:12:03;21.85;;;10.38;;
84695;SDS011;74913;40.204;44.532;2024-01-15T03:14:29;18.55;;;9.25;;
84695;SDS011;74913;40.204;44.532;2024-01-15T03:16:55;22.50;;;10.35;;
84695;SDS011;74913;40.204;44.532;2024-01-15T03:19:21;19.10;;;8.90;;
84695;SDS011;74913;40.204;44.532;2024-01-15T03:21:46;15.50;;;7.65;;
84695;SDS011;74913;40.204;44.532;2024-01-15T03:24:12;14.38;;;6.78;;
84695;SDS011;74913;40.204;44.532;2024-01-15T03:26:38;17.75;;;8.00;;
84695;SDS011;74913;40.204;44.532;2024-01-15T03:29:04;15.75;;;7.68;;
84695;SDS011;74913;40.204;44.532;2024-01-15T03:31:30;15.27;;;7.95;;
84695;SDS011;74913;40.204;44.532;2024-01-15T03:33:56;12.85;;;6.97;;
84695;SDS011;74913;40.204;44.532;2024-01-15T03:36:21;16.90;;;7.82;;
84695;SDS011;74913;40.204;44.532;2024-01-15T03:38:47;17.55;;;7.85;;
84695;SDS011;74913;40.204;44.532;2024-01-15T03:41:13;20.40;;;8.25;;
84695;SDS011;74913;40.204;44.532;2024-01-15T03:43:38;13.18;;;6.30;;
84695;SDS011;74913;40.204;44.532;2024-01-15T03:46:05;17.52;;;7.68;;
84695;SDS011;74913;40.204;44.532;2024-01-15T03:48:30;16.90;;;7.95;;
84695;SDS011;74913;40.204;44.532;2024-01-15T03:50:56;19.08;;;8.20;;
84695;SDS011;74913;40.204;44.532;2024-01-15T03:53:22;18.40;;;8.32;;
84695;SDS011;74913;40.204;44.532;2024-01-15T03:55:48;17.55;;;8.18;;
84695;SDS011;74913;40.204;44.532;2024-01-15T03:58:14;17.20;;;8.85;;
84695;SDS011;74913;40.204;44.532;2024-01-15T04:00:41;23.35;;;8.88;;
84695;SDS011;74913;40.204;44.532;2024-01-15T04:03:07;16.33;;;8.73;;
84695;SDS011;74913;40.204;44.532;2024-01-15T04:05:32;18.98;;;9.82;;
84695;SDS011;74913;40.204;44.532;2024-01-15T04:07:58;19.63;;;9.98;;
84695;SDS011;74913;40.204;44.532;2024-01-15T04:10:24;18.40;;;9.65;;
84695;SDS011;74913;40.204;44.532;2024-01-15T04:12:49;22.45;;;10.00;;
84695;SDS011;74913;40.204;44.532;2024-01-15T04:15:15;18.27;;;9.10;;
84695;SDS011;74913;40.204;44.532;2024-01-15T04:17:41;21.50;;;11.00;;
84695;SDS011;74913;40.204;44.532;2024-01-15T04:20:07;21.50;;;10.05;;
84695;SDS011;74913;40.204;44.532;2024-01-15T04:22:33;21.40;;;10.65;;
84695;SDS011;74913;40.204;44.532;2024-01-15T04:25:00;20.60;;;10.20;;
84695;SDS011;74913;40.204;44.532;2024-01-15T04:27:26;21.30;;;10.70;;
84695;SDS011;74913;40.204;44.532;2024-01-15T04:29:51;22.17;;;11.80;;
84695;SDS011;74913;40.204;44.532;2024-01-15T04:32:18;26.88;;;12.20;;
84695;SDS011;74913;40.204;44.532;2024-01-15T04:34:44;22.40;;;12.23;;
84695;SDS011;74913;40.204;44.532;2024-01-15T04:37:09;25.50;;;10.75;;
84695;SDS011;74913;40.204;44.532;2024-01-15T04:39:35;26.10;;;11.63;;
84695;SDS011;74913;40.204;44.532;2024-01-15T04:42:01;23.58;;;10.43;;
84695;SDS011;74913;40.204;44.532;2024-01-15T04:44:26;27.92;;;12.35;;
84695;SDS011;74913;40.204;44.532;2024-01-15T04:46:52;26.60;;;13.15;;
84695;SDS011;74913;40.204;44.532;2024-01-15T04:49:18;28.27;;;15.82;;
84695;SDS011;74913;40.204;44.532;2024-01-15T04:51:43;37.05;;;16.15;;
84695;SDS011;74913;40.204;44.532;2024-01-15T04:54:09;32.28;;;17.33;;
84695;SDS011;74913;40.204;44.532;2024-01-15T04:56:35;36.88;;;18.55;;
84695;SDS011;74913;40.204;44.532;2024-01-15T04:59:00;33.45;;;17.58;;
84695;SDS011;74913;40.204;44.532;2024-01-15T05:01:30;33.25;;;16.13;;
84695;SDS011;74913;40.204;44.532;2024-01-15T05:03:57;38.42;;;16.20;;
84695;SDS011;74913;40.204;44.532;2024-01-15T05:06:22;34.20;;;16.05;;
84695;SDS011;74913;40.204;44.532;2024-01-15T05:08:48;31.88;;;14.52;;
84695;SDS011;74913;40.204;44.532;2024-01-15T05:11:13;31.67;;;15.32;;
84695;SDS011;74913;40.204;44.532;2024-01-15T05:13:40;38.22;;;18.77;;
84695;SDS011;74913;40.204;44.532;2024-01-15T05:16:05;41.30;;;19.42;;
84695;SDS011;74913;40.204;44.532;2024-01-15T05:18:31;40.90;;;17.77;;
84695;SDS011;74913;40.204;44.532;2024-01-15T05:20:57;43.88;;;18.95;;
84695;SDS011;74913;40.204;44.532;2024-01-15T05:23:22;41.92;;;17.80;;
84695;SDS011;74913;40.204;44.532;2024-01-15T05:25:48;41.22;;;19.90;;
84695;SDS011;74913;40.204;44.532;2024-01-15T05:28:14;37.47;;;17.80;;
84695;SDS011;74913;40.204;44.532;2024-01-15T05:30:40;36.03;;;17.20;;
84695;SDS011;74913;40.204;44.532;2024-01-15T05:33:05;31.17;;;16.25;;
84695;SDS011;74913;40.204;44.532;2024-01-15T05:35:32;27.13;;;14.20;;
84695;SDS011;74913;40.204;44.532;2024-01-15T05:37:59;25.30;;;12.38;;
84695;SDS011;74913;40.204;44.532;2024-01-15T05:40:24;23.63;;;12.70;;
84695;SDS011;74913;40.204;44.532;2024-01-15T05:42:50;27.83;;;14.90;;
84695;SDS011;74913;40.204;44.532;2024-01-15T05:45:16;24.98;;;13.45;;
84695;SDS011;74913;40.204;44.532;2024-01-15T05:47:42;27.52;;;14.07;;
84695;SDS011;74913;40.204;44.532;2024-01-15T05:50:09;33.22;;;14.10;;
84695;SDS011;74913;40.204;44.532;2024-01-15T05:52:35;28.85;;;14.60;;
84695;SDS011;74913;40.204;44.532;2024-01-15T05:55:01;28.33;;;13.60;;
84695;SDS011;74913;40.204;44.532;2024-01-15T05:57:27;24.90;;;12.70;;
84695;SDS011;74913;40.204;44.532;2024-01-15T05:59:53;28.42;;;13.40;;
84695;SDS011;74913;40.204;44.532;2024-01-15T06:02:19;29.08;;;13.65;;
84695;SDS011;74913;40.204;44.532;2024-01-15T06:04:45;36.10;;;16.13;;
84695;SDS011;74913;40.204;44.532;2024-01-15T06:07:10;34.78;;;15.38;;
84695;SDS011;74913;40.204;44.532;2024-01-15T06:09:36;45.70;;;16.55;;
84695;SDS011;74913;40.204;44.532;2024-01-15T06:14:29;40.53;;;15.32;;
84695;SDS011;74913;40.204;44.532;2024-01-15T06:16:54;39.45;;;16.30;;
84695;SDS011;74913;40.204;44.532;2024-01-15T06:19:20;36.42;;;15.73;;
84695;SDS011;74913;40.204;44.532;2024-01-15T06:21:46;37.33;;;16.67;;
84695;SDS011;74913;40.204;44.532;2024-01-15T06:24:11;37.17;;;16.77;;
84695;SDS011;74913;40.204;44.532;2024-01-15T06:26:38;45.70;;;23.45;;
84695;SDS011;74913;40.204;44.532;2024-01-15T06:29:04;45.20;;;21.98;;
84695;SDS011;74913;40.204;44.532;2024-01-15T06:31:30;42.47;;;21.42;;
84695;SDS011;74913;40.204;44.532;2024-01-15T06:33:55;43.28;;;20.35;;
84695;SDS011;74913;40.204;44.532;2024-01-15T06:36:21;45.03;;;21.75;;
84695;SDS011;74913;40.204;44.532;2024-01-15T06:38:46;42.55;;;21.95;;
84695;SDS011;74913;40.204;44.532;2024-01-15T06:41:12;50.92;;;23.75;;
84695;SDS011;74913;40.204;44.532;2024-01-15T06:43:38;39.70;;;19.40;;
84695;SDS011;74913;40.204;44.532;2024-01-15T06:46:04;34.72;;;17.83;;
84695;SDS011;74913;40.204;44.532;2024-01-15T06:48:29;37.72;;;17.27;;
84695;SDS011;74913;40.204;44.532;2024-01-15T06:50:55;32.85;;;15.73;;
84695;SDS011;74913;40.204;44.532;2024-01-15T06:53:21;28.10;;;14.38;;
84695;SDS011;74913;40.204;44.532;2024-01-15T06:55:47;35.85;;;15.77;;
84695;SDS011;74913;40.204;44.532;2024-01-15T06:58:14;33.47;;;16.23;;
84695;SDS011;74913;40.204;44.532;2024-01-15T07:00:39;38.90;;;17.17;;
84695;SDS011;74913;40.204;44.532;2024-01-15T07:03:05;36.20;;;14.68;;
84695;SDS011;74913;40.204;44.532;2024-01-15T07:05:31;31.83;;;14.95;;
84695;SDS011;74913;40.204;44.532;2024-01-15T07:07:57;35.83;;;18.27;;
84695;SDS011;74913;40.204;44.532;2024-01-15T07:10:23;43.10;;;19.13;;
84695;SDS011;74913;40.204;44.532;2024-01-15T07:12:48;31.20;;;15.55;;
84695;SDS011;74913;40.204;44.532;2024-01-15T07:15:14;42.42;;;19.63;;
84695;SDS011;74913;40.204;44.532;2024-01-15T07:17:40;40.60;;;19.08;;
84695;SDS011;74913;40.204;44.532;2024-01-15T07:20:07;46.28;;;19.65;;
84695;SDS011;74913;40.204;44.532;2024-01-15T07:22:35;43.85;;;23.10;;
84695;SDS011;74913;40.204;44.532;2024-01-15T07:25:00;42.05;;;20.88;;
84695;SDS011;74913;40.204;44.532;2024-01-15T07:27:26;52.10;;;21.23;;
84695;SDS011;74913;40.204;44.532;2024-01-15T07:29:52;39.05;;;19.58;;
84695;SDS011;74913;40.204;44.532;2024-01-15T07:32:17;39.22;;;19.67;;
84695;SDS011;74913;40.204;44.532;2024-01-15T07:34:43;51.20;;;26.90;;
84695;SDS011;74913;40.204;44.532;2024-01-15T07:37:09;48.22;;;21.77;;
84695;SDS011;74913;40.204;44.532;2024-01-15T07:39:34;39.05;;;18.48;;
84695;SDS011;74913;40.204;44.532;2024-01-15T07:42:00;33.53;;;17.05;;
84695;SDS011;74913;40.204;44.532;2024-01-15T07:46:52;39.22;;;18.27;;
84695;SDS011;74913;40.204;44.532;2024-01-15T07:49:18;33.05;;;15.80;;
84695;SDS011;74913;40.204;44.532;2024-01-15T07:51:44;38.10;;;17.17;;
84695;SDS011;74913;40.204;44.532;2024-01-15T07:54:09;42.35;;;16.95;;
84695;SDS011;74913;40.204;44.532;2024-01-15T07:56:56;36.78;;;16.85;;
84695;SDS011;74913;40.204;44.532;2024-01-15T07:59:25;28.98;;;14.70;;
84695;SDS011;74913;40.204;44.532;2024-01-15T08:04:18;41.38;;;16.52;;
84695;SDS011;74913;40.204;44.532;2024-01-15T08:09:10;38.95;;;18.42;;
84695;SDS011;74913;40.204;44.532;2024-01-15T08:11:36;41.72;;;19.63;;
84695;SDS011;74913;40.204;44.532;2024-01-15T08:14:06;37.67;;;16.90;;
84695;SDS011;74913;40.204;44.532;2024-01-15T08:16:32;33.53;;;16.35;;
84695;SDS011;74913;40.204;44.532;2024-01-15T08:18:58;32.67;;;18.08;;
84695;SDS011;74913;40.204;44.532;2024-01-15T08:21:24;39.13;;;17.60;;
84695;SDS011;74913;40.204;44.532;2024-01-15T08:23:49;37.83;;;15.40;;
84695;SDS011;74913;40.204;44.532;2024-01-15T08:26:15;36.80;;;18.70;;
84695;SDS011;74913;40.204;44.532;2024-01-15T08:28:41;41.78;;;20.02;;
84695;SDS011;74913;40.204;44.532;2024-01-15T08:31:06;26.80;;;12.38;;
84695;SDS011;74913;40.204;44.532;2024-01-15T08:33:32;39.83;;;16.88;;
84695;SDS011;74913;40.204;44.532;2024-01-15T08:35:57;37.65;;;18.42;;
84695;SDS011;74913;40.204;44.532;2024-01-15T08:38:23;37.30;;;18.95;;
84695;SDS011;74913;40.204;44.532;2024-01-15T08:40:50;41.33;;;16.52;;
84695;SDS011;74913;40.204;44.532;2024-01-15T08:43:18;36.50;;;17.20;;
84695;SDS011;74913;40.204;44.532;2024-01-15T08:45:44;37.35;;;17.20;;
84695;SDS011;74913;40.204;44.532;2024-01-15T08:48:10;29.13;;;17.13;;
84695;SDS011;74913;40.204;44.532;2024-01-15T08:50:35;38.25;;;19.65;;
84695;SDS011;74913;40.204;44.532;2024-01-15T08:53:01;36.38;;;17.55;;
84695;SDS011;74913;40.204;44.532;2024-01-15T08:55:27;27.17;;;15.07;;
84695;SDS011;74913;40.204;44.532;2024-01-15T08:57:56;34.67;;;16.83;;
84695;SDS011;74913;40.204;44.532;2024-01-15T09:00:22;32.67;;;16.05;;
84695;SDS011;74913;40.204;44.532;2024-01-15T09:02:48;37.42;;;17.77;;
84695;SDS011;74913;40.204;44.532;2024-01-15T09:05:13;34.15;;;17.33;;
84695;SDS011;74913;40.204;44.532;2024-01-15T09:07:39;41.75;;;18.52;;
84695;SDS011;74913;40.204;44.532;2024-01-15T09:10:05;34.42;;;18.90;;
84695;SDS011;74913;40.204;44.532;2024-01-15T09:14:57;38.80;;;18.13;;
84695;SDS011;74913;40.204;44.532;2024-01-15T09:17:22;39.92;;;19.42;;
84695;SDS011;74913;40.204;44.532;2024-01-15T09:19:49;37.03;;;17.77;;
84695;SDS011;74913;40.204;44.532;2024-01-15T09:22:14;26.77;;;15.50;;
84695;SDS011;74913;40.204;44.532;2024-01-15T09:24:43;38.90;;;19.33;;
84695;SDS011;74913;40.204;44.532;2024-01-15T09:27:12;35.47;;;19.75;;
84695;SDS011;74913;40.204;44.532;2024-01-15T09:29:38;32.72;;;16.95;;
84695;SDS011;74913;40.204;44.532;2024-01-15T09:32:07;32.55;;;16.45;;
84695;SDS011;74913;40.204;44.532;2024-01-15T09:34:35;35.70;;;15.77;;
84695;SDS011;74913;40.204;44.532;2024-01-15T09:37:01;35.08;;;18.98;;
84695;SDS011;74913;40.204;44.532;2024-01-15T09:39:28;27.58;;;15.73;;
84695;SDS011;74913;40.204;44.532;2024-01-15T09:41:54;33.65;;;17.33;;
84695;SDS011;74913;40.204;44.532;2024-01-15T09:44:20;47.97;;;20.67;;
84695;SDS011;74913;40.204;44.532;2024-01-15T09:46:46;42.08;;;19.63;;
84695;SDS011;74913;40.204;44.532;2024-01-15T09:49:15;26.13;;;14.25;;
84695;SDS011;74913;40.204;44.532;2024-01-15T09:51:41;35.90;;;17.70;;
84695;SDS011;74913;40.204;44.532;2024-01-15T09:54:07;43.75;;;20.10;;
84695;SDS011;74913;40.204;44.532;2024-01-15T09:56:34;43.38;;;22.15;;
84695;SDS011;74913;40.204;44.532;2024-01-15T09:59:00;55.58;;;25.92;;
84695;SDS011;74913;40.204;44.532;2024-01-15T10:01:27;42.03;;;22.75;;
84695;SDS011;74913;40.204;44.532;2024-01-15T10:06:19;34.03;;;17.80;;
84695;SDS011;74913;40.204;44.532;2024-01-15T10:08:50;36.05;;;17.83;;
84695;SDS011;74913;40.204;44.532;2024-01-15T10:11:16;32.13;;;17.23;;
84695;SDS011;74913;40.204;44.532;2024-01-15T10:13:46;31.77;;;16.48;;
84695;SDS011;74913;40.204;44.532;2024-01-15T10:16:12;41.95;;;20.75;;
84695;SDS011;74913;40.204;44.532;2024-01-15T10:18:38;37.90;;;19.52;;
84695;SDS011;74913;40.204;44.532;2024-01-15T10:23:32;37.28;;;20.05;;
84695;SDS011;74913;40.204;44.532;2024-01-15T10:25:58;41.78;;;19.80;;
84695;SDS011;74913;40.204;44.532;2024-01-15T10:28:26;40.38;;;18.38;;
84695;SDS011;74913;40.204;44.532;2024-01-15T10:30:56;34.13;;;15.57;;
84695;SDS011;74913;40.204;44.532;2024-01-15T10:33:24;36.00;;;18.80;;
84695;SDS011;74913;40.204;44.532;2024-01-15T10:35:53;59.20;;;20.55;;
84695;SDS011;74913;40.204;44.532;2024-01-15T10:38:23;43.28;;;19.80;;
84695;SDS011;74913;40.204;44.532;2024-01-15T10:40:53;35.47;;;18.20;;
84695;SDS011;74913;40.204;44.532;2024-01-15T10:43:20;37.80;;;17.23;;
84695;SDS011;74913;40.204;44.532;2024-01-15T10:45:46;35.40;;;18.60;;
84695;SDS011;74913;40.204;44.532;2024-01-15T10:48:16;40.40;;;19.30;;
84695;SDS011;74913;40.204;44.532;2024-01-15T10:50:43;27.05;;;14.77;;
84695;SDS011;74913;40.204;44.532;2024-01-15T10:53:11;33.45;;;16.98;;
84695;SDS011;74913;40.204;44.532;2024-01-15T10:55:38;40.15;;;20.35;;
84695;SDS011;74913;40.204;44.532;2024-01-15T10:58:04;35.72;;;18.20;;
84695;SDS011;74913;40.204;44.532;2024-01-15T11:00:33;29.77;;;15.13;;
84695;SDS011;74913;40.204;44.532;2024-01-15T11:03:00;24.38;;;13.48;;
84695;SDS011;74913;40.204;44.532;2024-01-15T11:05:27;34.72;;;17.83;;
84695;SDS011;74913;40.204;44.532;2024-01-15T11:07:56;31.00;;;17.80;;
84695;SDS011;74913;40.204;44.532;2024-01-15T11:13:13;30.17;;;16.83;;
84695;SDS011;74913;40.204;44.532;2024-01-15T11:18:30;36.22;;;17.85;;
84695;SDS011;74913;40.204;44.532;2024-01-15T11:23:45;39.78;;;17.65;;
84695;SDS011;74913;40.204;44.532;2024-01-15T11:28:59;36.22;;;17.17;;
84695;SDS011;74913;40.204;44.532;2024-01-15T11:31:27;37.83;;;20.25;;
84695;SDS011;74913;40.204;44.532;2024-01-15T11:34:15;37.45;;;18.23;;
84695;SDS011;74913;40.204;44.532;2024-01-15T11:42:03;35.15;;;17.33;;
84695;SDS011;74913;40.204;44.532;2024-01-15T11:44:29;37.92;;;19.63;;
84695;SDS011;74913;40.204;44.532;2024-01-15T11:46:59;30.70;;;16.13;;
84695;SDS011;74913;40.204;44.532;2024-01-15T11:51:59;28.15;;;15.40;;
84695;SDS011;74913;40.204;44.532;2024-01-15T11:54:27;37.50;;;18.58;;
84695;SDS011;74913;40.204;44.532;2024-01-15T11:56:56;33.83;;;15.95;;
84695;SDS011;74913;40.204;44.532;2024-01-15T11:59:25;29.30;;;14.32;;
84695;SDS011;74913;40.204;44.532;2024-01-15T12:01:51;30.00;;;14.57;;
84695;SDS011;74913;40.204;44.532;2024-01-15T12:04:20;36.13;;;17.58;;
84695;SDS011;74913;40.204;44.532;2024-01-15T12:06:46;33.67;;;18.50;;
84695;SDS011;74913;40.204;44.532;2024-01-15T12:09:12;39.78;;;19.23;;
84695;SDS011;74913;40.204;44.532;2024-01-15T12:11:37;16.13;;;8.43;;
84695;SDS011;74913;40.204;44.532;2024-01-15T12:14:12;34.10;;;16.83;;
84695;SDS011;74913;40.204;44.532;2024-01-15T12:16:38;28.60;;;15.32;;
84695;SDS011;74913;40.204;44.532;2024-01-15T12:19:04;26.95;;;14.75;;
84695;SDS011;74913;40.204;44.532;2024-01-15T12:21:31;26.23;;;13.77;;
84695;SDS011;74913;40.204;44.532;2024-01-15T12:23:56;28.60;;;14.48;;
84695;SDS011;74913;40.204;44.532;2024-01-15T12:26:22;27.45;;;15.98;;
84695;SDS011;74913;40.204;44.532;2024-01-15T12:28:49;26.20;;;13.55;;
84695;SDS011;74913;40.204;44.532;2024-01-15T12:31:16;27.17;;;13.18;;
84695;SDS011;74913;40.204;44.532;2024-01-15T12:33:42;35.92;;;15.95;;
84695;SDS011;74913;40.204;44.532;2024-01-15T12:36:08;23.38;;;13.43;;
84695;SDS011;74913;40.204;44.532;2024-01-15T12:38:34;28.73;;;15.05;;
84695;SDS011;74913;40.204;44.532;2024-01-15T12:41:00;31.77;;;15.50;;
84695;SDS011;74913;40.204;44.532;2024-01-15T12:45:51;24.15;;;13.73;;
84695;SDS011;74913;40.204;44.532;2024-01-15T12:48:17;27.85;;;14.65;;
84695;SDS011;74913;40.204;44.532;2024-01-15T12:50:43;24.85;;;13.55;;
84695;SDS011;74913;40.204;44.532;2024-01-15T12:53:09;32.85;;;16.50;;
84695;SDS011;74913;40.204;44.532;2024-01-15T12:55:34;37.17;;;19.27;;
84695;SDS011;74913;40.204;44.532;2024-01-15T12:58:00;24.88;;;14.40;;
84695;SDS011;74913;40.204;44.532;2024-01-15T13:00:26;48.85;;;21.67;;
84695;SDS011;74913;40.204;44.532;2024-01-15T13:02:51;42.20;;;20.27;;
84695;SDS011;74913;40.204;44.532;2024-01-15T13:05:17;34.22;;;16.55;;
84695;SDS011;74913;40.204;44.532;2024-01-15T13:07:44;32.90;;;12.52;;
84695;SDS011;74913;40.204;44.532;2024-01-15T13:10:10;31.75;;;16.20;;
84695;SDS011;74913;40.204;44.532;2024-01-15T13:12:36;36.72;;;17.85;;
84695;SDS011;74913;40.204;44.532;2024-01-15T13:15:03;39.55;;;16.20;;
84695;SDS011;74913;40.204;44.532;2024-01-15T13:17:29;38.03;;;17.42;;
84695;SDS011;74913;40.204;44.532;2024-01-15T13:19:54;37.08;;;17.10;;
84695;SDS011;74913;40.204;44.532;2024-01-15T13:22:20;28.15;;;13.75;;
84695;SDS011;74913;40.204;44.532;2024-01-15T13:24:45;35.83;;;16.42;;
84695;SDS011;74913;40.204;44.532;2024-01-15T13:27:11;27.20;;;13.88;;
84695;SDS011;74913;40.204;44.532;2024-01-15T13:29:37;44.45;;;20.02;;
84695;SDS011;74913;40.204;44.532;2024-01-15T13:32:03;38.13;;;18.10;;
84695;SDS011;74913;40.204;44.532;2024-01-15T13:34:30;31.48;;;15.23;;
84695;SDS011;74913;40.204;44.532;2024-01-15T13:36:56;20.10;;;9.80;;
84695;SDS011;74913;40.204;44.532;2024-01-15T13:39:22;31.20;;;16.08;;
84695;SDS011;74913;40.204;44.532;2024-01-15T13:41:48;36.15;;;16.63;;
84695;SDS011;74913;40.204;44.532;2024-01-15T13:44:14;24.33;;;11.65;;
84695;SDS011;74913;40.204;44.532;2024-01-15T13:46:40;35.63;;;18.98;;
84695;SDS011;74913;40.204;44.532;2024-01-15T13:49:05;35.47;;;17.00;;
84695;SDS011;74913;40.204;44.532;2024-01-15T13:51:31;25.63;;;12.98;;
84695;SDS011;74913;40.204;44.532;2024-01-15T13:53:57;34.55;;;18.17;;
84695;SDS011;74913;40.204;44.532;2024-01-15T13:56:23;29.73;;;14.50;;
84695;SDS011;74913;40.204;44.532;2024-01-15T13:58:48;38.25;;;18.42;;
84695;SDS011;74913;40.204;44.532;2024-01-15T14:01:15;38.80;;;17.77;;
84695;SDS011;74913;40.204;44.532;2024-01-15T14:03:42;28.02;;;14.68;;
84695;SDS011;74913;40.204;44.532;2024-01-15T14:06:08;33.90;;;15.02;;
84695;SDS011;74913;40.204;44.532;2024-01-15T14:08:34;39.80;;;20.15;;
84695;SDS011;74913;40.204;44.532;2024-01-15T14:11:01;44.03;;;19.77;;
84695;SDS011;74913;40.204;44.532;2024-01-15T14:13:27;33.97;;;18.48;;
84695;SDS011;74913;40.204;44.532;2024-01-15T14:15:53;35.55;;;17.40;;
84695;SDS011;74913;40.204;44.532;2024-01-15T14:18:19;35.63;;;16.40;;
84695;SDS011;74913;40.204;44.532;2024-01-15T14:20:44;35.15;;;15.25;;
84695;SDS011;74913;40.204;44.532;2024-01-15T14:23:10;31.33;;;15.35;;
84695;SDS011;74913;40.204;44.532;2024-01-15T14:25:35;33.45;;;16.92;;
84695;SDS011;74913;40.204;44.532;2024-01-15T14:28:01;24.83;;;12.35;;
84695;SDS011;74913;40.204;44.532;2024-01-15T14:30:27;32.53;;;14.65;;
84695;SDS011;74913;40.204;44.532;2024-01-15T14:32:52;27.90;;;14.77;;
84695;SDS011;74913;40.204;44.532;2024-01-15T14:35:18;32.70;;;16.80;;
84695;SDS011;74913;40.204;44.532;2024-01-15T14:37:44;31.42;;;15.98;;
84695;SDS011;74913;40.204;44.532;2024-01-15T14:42:37;24.30;;;11.40;;
84695;SDS011;74913;40.204;44.532;2024-01-15T14:45:03;28.45;;;14.23;;
84695;SDS011;74913;40.204;44.532;2024-01-15T14:47:33;35.08;;;15.95;;